Time;durP1;ratioP1;P1;durP2;ratioP2;P2;SDS_P1;SDS_P2;PMS_P1;PMS_P2;Temp;Humidity;BMP_temperature;BMP_pressure;BME280_temperature;BME280_humidity;BME280_pressure;Samples;Min_cycle;Max_cycle;Signal;HPM_P1;HPM_P2
2023/01/29 00:01:01;;;;;;;76.13;54.05;;;;;;;;;;5013598;28;20294;-74
2023/01/29 00:03:27;;;;;;;46.47;35.17;;;;;;;;;;5015012;28;20356;-73
2023/01/29 00:05:52;;;;;;;87.55;61.20;;;;;;;;;;5018664;28;20037;-74
2023/01/29 00:08:17;;;;;;;74.18;56.97;;;;;;;;;;5011912;28;20025;-74
2023/01/29 00:10:42;;;;;;;62.92;49.20;;;;;;;;;;5026212;28;20103;-74
2023/01/29 00:13:08;;;;;;;68.60;53.88;;;;;;;;;;5022880;28;20045;-74
2023/01/29 00:15:33;;;;;;;82.00;59.13;;;;;;;;;;5023913;28;20456;-74
2023/01/29 00:17:58;;;;;;;35.65;28.60;;;;;;;;;;5024846;28;20041;-76
2023/01/29 00:20:24;;;;;;;76.32;53.42;;;;;;;;;;5012581;28;20495;-74
2023/01/29 00:22:49;;;;;;;46.28;36.20;;;;;;;;;;5014249;28;20033;-76
2023/01/29 00:25:14;;;;;;;42.45;34.30;;;;;;;;;;5015221;28;20381;-74
2023/01/29 00:27:40;;;;;;;28.98;24.80;;;;;;;;;;5024732;28;20047;-74
2023/01/29 00:30:11;;;;;;;23.55;20.58;;;;;;;;;;5024994;28;20128;-77
2023/01/29 00:32:36;;;;;;;46.50;33.17;;;;;;;;;;5040990;28;20040;-75
2023/01/29 00:35:02;;;;;;;40.00;30.73;;;;;;;;;;5025276;28;20028;-74
2023/01/29 00:37:28;;;;;;;34.80;27.35;;;;;;;;;;5019837;28;20025;-74
2023/01/29 00:39:53;;;;;;;27.10;22.20;;;;;;;;;;5013779;28;20342;-75
2023/01/29 00:45:02;;;;;;;29.95;25.67;;;;;;;;;;5014450;28;20376;-74
2023/01/29 00:47:34;;;;;;;27.73;22.27;;;;;;;;;;5016098;28;20029;-73
2023/01/29 00:50:00;;;;;;;31.17;24.30;;;;;;;;;;5018039;28;20029;-76
2023/01/29 00:52:25;;;;;;;26.00;21.00;;;;;;;;;;5020547;28;20041;-73
2023/01/29 00:54:51;;;;;;;24.20;20.95;;;;;;;;;;5015649;28;20337;-73
2023/01/29 00:57:16;;;;;;;22.70;18.50;;;;;;;;;;5022400;28;20076;-73
2023/01/29 00:59:42;;;;;;;21.92;18.23;;;;;;;;;;5010511;28;20490;-74
2023/01/29 01:04:51;;;;;;;54.75;39.85;;;;;;;;;;5024065;28;20091;-77
2023/01/29 01:07:16;;;;;;;29.05;23.80;;;;;;;;;;5019110;28;20041;-74
2023/01/29 01:12:26;;;;;;;46.00;35.25;;;;;;;;;;5023940;28;20040;-74
2023/01/29 01:14:52;;;;;;;31.52;26.13;;;;;;;;;;5022963;28;20083;-74
2023/01/29 01:17:17;;;;;;;27.45;23.80;;;;;;;;;;5014466;28;20454;-74
2023/01/29 01:19:42;;;;;;;31.95;27.02;;;;;;;;;;5010639;28;20029;-75
2023/01/29 01:22:08;;;;;;;29.95;22.08;;;;;;;;;;5022004;28;20084;-77
2023/01/29 01:24:33;;;;;;;27.33;22.40;;;;;;;;;;5010768;28;20052;-75
2023/01/29 01:26:58;;;;;;;23.25;19.23;;;;;;;;;;5023495;28;20352;-74
2023/01/29 01:29:24;;;;;;;22.30;19.92;;;;;;;;;;5010517;28;20119;-74
2023/01/29 01:31:49;;;;;;;24.25;21.65;;;;;;;;;;5024438;28;20099;-75
2023/01/29 01:34:14;;;;;;;23.90;20.90;;;;;;;;;;5023474;28;20437;-75
2023/01/29 01:36:40;;;;;;;25.67;21.38;;;;;;;;;;5022912;28;20025;-73
2023/01/29 01:39:05;;;;;;;34.80;27.58;;;;;;;;;;5013274;28;20380;-73
2023/01/29 01:41:31;;;;;;;23.35;20.13;;;;;;;;;;5016766;28;20036;-73
2023/01/29 01:43:58;;;;;;;44.53;34.53;;;;;;;;;;5013526;28;20132;-73
2023/01/29 01:46:24;;;;;;;50.65;36.65;;;;;;;;;;5020452;28;20346;-74
2023/01/29 01:48:52;;;;;;;55.05;37.25;;;;;;;;;;5010598;28;20136;-74
2023/01/29 01:51:18;;;;;;;53.10;38.03;;;;;;;;;;5022035;28;20017;-74
2023/01/29 01:53:47;;;;;;;52.45;37.58;;;;;;;;;;5018918;28;20029;-74
2023/01/29 01:56:14;;;;;;;67.35;44.17;;;;;;;;;;5013375;28;20073;-75
2023/01/29 01:58:42;;;;;;;36.63;25.25;;;;;;;;;;5020645;28;20068;-74
2023/01/29 02:01:07;;;;;;;23.52;18.23;;;;;;;;;;5023029;28;20064;-76
2023/01/29 02:11:54;;;;;;;31.00;23.88;;;;;;;;;;5019677;28;20098;-73
2023/01/29 02:14:19;;;;;;;28.17;22.80;;;;;;;;;;5022427;28;20452;-73
2023/01/29 02:16:45;;;;;;;24.83;19.73;;;;;;;;;;5020868;28;20034;-73
2023/01/29 02:19:29;;;;;;;27.67;23.17;;;;;;;;;;5016237;28;20319;-74
2023/01/29 02:22:12;;;;;;;31.20;24.98;;;;;;;;;;5017925;28;20029;-75
2023/01/29 02:24:38;;;;;;;22.95;19.40;;;;;;;;;;5010237;28;20803;-73
2023/01/29 02:27:09;;;;;;;26.83;21.35;;;;;;;;;;5021914;28;20079;-74
2023/01/29 02:29:34;;;;;;;21.70;18.63;;;;;;;;;;5021498;28;20073;-73
2023/01/29 02:32:02;;;;;;;23.90;19.13;;;;;;;;;;5017027;28;20421;-73
2023/01/29 02:34:27;;;;;;;22.65;18.63;;;;;;;;;;5016244;28;20026;-74
2023/01/29 02:36:56;;;;;;;26.77;21.70;;;;;;;;;;5023557;28;20476;-78
2023/01/29 02:39:21;;;;;;;18.58;16.20;;;;;;;;;;5022344;28;20022;-73
2023/01/29 02:42:05;;;;;;;21.30;18.05;;;;;;;;;;5016630;28;20349;-73
2023/01/29 02:44:47;;;;;;;23.45;19.08;;;;;;;;;;5019195;28;20026;-74
2023/01/29 02:47:26;;;;;;;24.90;19.58;;;;;;;;;;5017834;28;20030;-72
2023/01/29 02:50:03;;;;;;;22.42;18.17;;;;;;;;;;5014363;28;20124;-75
2023/01/29 02:52:48;;;;;;;39.30;31.65;;;;;;;;;;5020755;28;20025;-74
2023/01/29 02:55:28;;;;;;;29.67;23.30;;;;;;;;;;5020527;28;20030;-73
2023/01/29 02:57:56;;;;;;;17.63;15.77;;;;;;;;;;5025646;28;20040;-74
2023/01/29 03:00:24;;;;;;;17.90;15.65;;;;;;;;;;5020301;28;20037;-73
2023/01/29 03:03:02;;;;;;;19.48;16.98;;;;;;;;;;5016400;28;20025;-74
2023/01/29 03:05:42;;;;;;;28.20;18.75;;;;;;;;;;5019955;28;20196;-73
2023/01/29 03:08:09;;;;;;;24.27;18.67;;;;;;;;;;5021182;28;20021;-74
2023/01/29 03:10:50;;;;;;;21.77;17.92;;;;;;;;;;5021758;28;20029;-74
2023/01/29 03:13:33;;;;;;;23.27;17.65;;;;;;;;;;5020083;28;20039;-76
2023/01/29 03:16:02;;;;;;;19.48;16.30;;;;;;;;;;5015055;28;20128;-73
2023/01/29 03:18:31;;;;;;;19.20;17.00;;;;;;;;;;5013072;28;20503;-72
2023/01/29 03:21:48;;;;;;;23.15;18.73;;;;;;;;;;5015375;28;20030;-75
2023/01/29 03:32:07;;;;;;;23.23;19.00;;;;;;;;;;5022915;28;20099;-72
2023/01/29 03:34:37;;;;;;;19.77;17.35;;;;;;;;;;5014923;28;20034;-73
2023/01/29 03:37:08;;;;;;;23.77;18.60;;;;;;;;;;5020886;28;20042;-76
2023/01/29 03:39:34;;;;;;;22.73;18.30;;;;;;;;;;5023139;28;20449;-74
2023/01/29 03:42:06;;;;;;;23.70;17.67;;;;;;;;;;5014946;28;20060;-74
2023/01/29 03:44:41;;;;;;;22.85;17.20;;;;;;;;;;5019678;28;20022;-73
2023/01/29 03:47:16;;;;;;;22.63;17.55;;;;;;;;;;5016113;28;20057;-72
2023/01/29 03:49:54;;;;;;;20.33;16.70;;;;;;;;;;5016042;28;20520;-74
2023/01/29 03:52:22;;;;;;;21.42;16.83;;;;;;;;;;5024648;28;20029;-75
2023/01/29 03:54:53;;;;;;;25.90;17.92;;;;;;;;;;5023994;28;20029;-75
2023/01/29 03:57:18;;;;;;;23.23;18.67;;;;;;;;;;5024174;28;20037;-74
2023/01/29 03:59:56;;;;;;;22.23;18.52;;;;;;;;;;5025523;28;20483;-73
2023/01/29 04:02:26;;;;;;;22.65;19.08;;;;;;;;;;5023759;28;20025;-75
2023/01/29 04:04:52;;;;;;;17.23;15.27;;;;;;;;;;5014232;28;20044;-74
2023/01/29 04:07:23;;;;;;;19.35;16.92;;;;;;;;;;5023701;28;20033;-74
2023/01/29 04:10:18;;;;;;;24.15;19.95;;;;;;;;;;5010732;28;20052;-74
2023/01/29 04:12:49;;;;;;;30.58;23.15;;;;;;;;;;5005378;28;20151;-75
2023/01/29 04:15:15;;;;;;;28.05;22.90;;;;;;;;;;5003574;28;20144;-75
2023/01/29 04:17:42;;;;;;;33.05;25.08;;;;;;;;;;4992004;28;20368;-74
2023/01/29 04:20:08;;;;;;;27.60;23.30;;;;;;;;;;4991151;28;20369;-75
2023/01/29 04:22:34;;;;;;;28.85;24.40;;;;;;;;;;4995821;28;20044;-77
2023/01/29 04:25:07;;;;;;;32.15;24.50;;;;;;;;;;5003286;28;20706;-76
2023/01/29 04:27:32;;;;;;;32.83;25.98;;;;;;;;;;5002731;28;20484;-73
2023/01/29 04:30:06;;;;;;;29.65;22.48;;;;;;;;;;5002245;28;20037;-77
2023/01/29 04:32:46;;;;;;;28.58;23.23;;;;;;;;;;5003312;28;20079;-75
2023/01/29 04:35:24;;;;;;;26.73;22.30;;;;;;;;;;4991733;28;20095;-76
2023/01/29 04:38:08;;;;;;;24.95;20.13;;;;;;;;;;4985974;28;20064;-76
2023/01/29 04:41:00;;;;;;;24.23;20.42;;;;;;;;;;4992715;28;20072;-75
2023/01/29 04:43:28;;;;;;;31.95;24.45;;;;;;;;;;5002932;28;20050;-72
2023/01/29 04:46:09;;;;;;;25.38;20.70;;;;;;;;;;5003338;28;20117;-73
2023/01/29 04:48:37;;;;;;;23.50;20.52;;;;;;;;;;4998783;28;20122;-73
2023/01/29 04:51:21;;;;;;;29.63;24.10;;;;;;;;;;5015282;28;20029;-76
2023/01/29 04:53:58;;;;;;;24.05;21.45;;;;;;;;;;5023469;28;20056;-73
2023/01/29 04:56:50;;;;;;;26.73;21.75;;;;;;;;;;5022382;28;20017;-73
2023/01/29 04:59:23;;;;;;;37.15;29.80;;;;;;;;;;5015545;28;20041;-74
2023/01/29 05:01:49;;;;;;;31.60;26.30;;;;;;;;;;5020838;28;20500;-71
2023/01/29 05:04:17;;;;;;;23.48;20.95;;;;;;;;;;5018128;28;20148;-73
2023/01/29 05:06:45;;;;;;;24.88;20.42;;;;;;;;;;5016747;28;20056;-73
2023/01/29 05:09:11;;;;;;;19.58;16.95;;;;;;;;;;5026029;28;20018;-71
2023/01/29 05:11:37;;;;;;;20.30;17.00;;;;;;;;;;5023629;28;20108;-75
2023/01/29 05:14:03;;;;;;;17.67;15.82;;;;;;;;;;5013423;28;20635;-73
2023/01/29 05:16:40;;;;;;;20.38;18.17;;;;;;;;;;5024796;28;20033;-73
2023/01/29 05:19:06;;;;;;;19.63;17.38;;;;;;;;;;5009238;28;20025;-74
2023/01/29 05:21:31;;;;;;;21.48;19.23;;;;;;;;;;5013916;28;20396;-73
2023/01/29 05:24:10;;;;;;;21.65;19.23;;;;;;;;;;5011062;28;20036;-72
2023/01/29 05:29:20;;;;;;;20.92;18.55;;;;;;;;;;5024659;28;20036;-72
2023/01/29 05:31:45;;;;;;;18.50;16.50;;;;;;;;;;5022566;28;20029;-76
2023/01/29 05:34:11;;;;;;;19.00;17.00;;;;;;;;;;5016100;28;20036;-75
2023/01/29 05:36:36;;;;;;;22.48;20.08;;;;;;;;;;5015434;28;20056;-75
2023/01/29 05:39:01;;;;;;;24.27;20.05;;;;;;;;;;5015024;28;20025;-75
2023/01/29 05:41:26;;;;;;;28.85;22.83;;;;;;;;;;5016925;28;20071;-72
2023/01/29 05:43:52;;;;;;;25.40;20.58;;;;;;;;;;5008942;28;20045;-73
2023/01/29 05:46:17;;;;;;;25.90;21.90;;;;;;;;;;5022562;28;20056;-72
2023/01/29 05:48:43;;;;;;;31.15;25.92;;;;;;;;;;5010058;28;20040;-75
2023/01/29 05:51:08;;;;;;;27.05;23.25;;;;;;;;;;5014185;28;20052;-75
2023/01/29 05:53:33;;;;;;;30.52;25.52;;;;;;;;;;5023872;28;20033;-75
2023/01/29 05:56:02;;;;;;;30.90;26.33;;;;;;;;;;5023265;28;20056;-75
2023/01/29 05:58:29;;;;;;;31.85;28.50;;;;;;;;;;5019971;28;20029;-74
2023/01/29 06:00:54;;;;;;;33.95;27.13;;;;;;;;;;5022071;28;20056;-77
2023/01/29 06:03:19;;;;;;;30.08;25.83;;;;;;;;;;5014983;28;20048;-74
2023/01/29 06:05:45;;;;;;;43.20;32.35;;;;;;;;;;5008942;28;20415;-74
2023/01/29 06:08:10;;;;;;;54.90;41.65;;;;;;;;;;5008697;28;20024;-75
2023/01/29 06:10:36;;;;;;;90.80;64.50;;;;;;;;;;5016415;28;20104;-74
2023/01/29 06:13:01;;;;;;;69.57;50.92;;;;;;;;;;5009661;28;20029;-73
2023/01/29 06:15:27;;;;;;;50.90;40.55;;;;;;;;;;5008214;28;20029;-77
2023/01/29 06:17:52;;;;;;;44.55;35.92;;;;;;;;;;5009725;28;20068;-74
2023/01/29 06:20:18;;;;;;;40.65;35.65;;;;;;;;;;5010225;28;20038;-76
2023/01/29 06:22:43;;;;;;;38.95;33.00;;;;;;;;;;5017787;28;20033;-76
2023/01/29 06:25:08;;;;;;;33.17;28.40;;;;;;;;;;5010624;28;20025;-77
2023/01/29 06:27:34;;;;;;;28.42;25.35;;;;;;;;;;5021074;28;20068;-73
2023/01/29 06:29:59;;;;;;;55.67;42.22;;;;;;;;;;5021822;28;20360;-73
2023/01/29 06:32:24;;;;;;;52.00;40.03;;;;;;;;;;5024758;28;20029;-73
2023/01/29 06:34:49;;;;;;;58.42;46.17;;;;;;;;;;5024176;28;20094;-73
2023/01/29 06:37:15;;;;;;;49.63;41.90;;;;;;;;;;5024094;28;20033;-73
2023/01/29 06:39:40;;;;;;;64.93;51.78;;;;;;;;;;5011289;28;20037;-71
2023/01/29 06:42:05;;;;;;;41.08;35.45;;;;;;;;;;5022779;28;20073;-71
2023/01/29 06:44:31;;;;;;;31.58;27.75;;;;;;;;;;5010156;28;20026;-75
2023/01/29 06:46:56;;;;;;;50.72;39.22;;;;;;;;;;5007307;28;20029;-74
2023/01/29 06:49:22;;;;;;;31.50;25.88;;;;;;;;;;5016250;28;20034;-72
2023/01/29 06:51:47;;;;;;;40.78;33.33;;;;;;;;;;5011371;28;20038;-73
2023/01/29 06:54:12;;;;;;;35.75;30.35;;;;;;;;;;5021222;28;20021;-71
2023/01/29 06:56:38;;;;;;;28.33;24.85;;;;;;;;;;5024884;28;20080;-70
2023/01/29 06:59:03;;;;;;;44.22;36.97;;;;;;;;;;5026544;28;20088;-71
2023/01/29 07:01:28;;;;;;;39.75;32.53;;;;;;;;;;5023595;28;20044;-73
2023/01/29 07:03:53;;;;;;;41.13;32.33;;;;;;;;;;5024014;28;20022;-72
2023/01/29 07:06:19;;;;;;;40.90;31.05;;;;;;;;;;5015114;28;20033;-71
2023/01/29 07:08:45;;;;;;;31.25;27.13;;;;;;;;;;5021940;28;20024;-71
2023/01/29 07:11:10;;;;;;;29.35;24.73;;;;;;;;;;5018066;28;20037;-72
2023/01/29 07:13:35;;;;;;;34.30;26.83;;;;;;;;;;5022451;28;20025;-71
2023/01/29 07:16:02;;;;;;;28.88;24.80;;;;;;;;;;5017542;28;20053;-71
2023/01/29 07:18:27;;;;;;;36.40;30.20;;;;;;;;;;5024803;28;20384;-71
2023/01/29 07:20:53;;;;;;;47.45;38.63;;;;;;;;;;5023828;28;20059;-71
2023/01/29 07:23:18;;;;;;;42.88;34.42;;;;;;;;;;5023780;28;20037;-71
2023/01/29 07:25:44;;;;;;;41.50;35.50;;;;;;;;;;5016796;28;20120;-70
2023/01/29 07:28:09;;;;;;;34.58;30.30;;;;;;;;;;5024866;28;20056;-71
2023/01/29 07:30:34;;;;;;;48.78;42.17;;;;;;;;;;5025556;28;20433;-72
2023/01/29 07:33:04;;;;;;;36.40;30.77;;;;;;;;;;5023799;28;20341;-73
2023/01/29 07:35:29;;;;;;;40.00;34.75;;;;;;;;;;5025028;28;20104;-73
2023/01/29 07:37:54;;;;;;;53.50;43.70;;;;;;;;;;5024167;28;20128;-72
2023/01/29 07:40:20;;;;;;;41.80;34.47;;;;;;;;;;5021385;28;20103;-73
2023/01/29 07:42:45;;;;;;;41.35;34.13;;;;;;;;;;5014810;28;20137;-72
2023/01/29 07:45:11;;;;;;;41.25;36.42;;;;;;;;;;5024591;28;20060;-72
2023/01/29 07:47:36;;;;;;;40.88;36.13;;;;;;;;;;5024997;28;20123;-74
2023/01/29 07:50:02;;;;;;;41.70;34.70;;;;;;;;;;5020754;28;20057;-72
2023/01/29 07:52:31;;;;;;;41.70;33.42;;;;;;;;;;5013722;28;20025;-72
2023/01/29 07:54:57;;;;;;;48.15;39.83;;;;;;;;;;5021287;28;20037;-72
2023/01/29 07:57:22;;;;;;;35.03;30.58;;;;;;;;;;5022705;28;20102;-72
2023/01/29 07:59:48;;;;;;;34.65;30.85;;;;;;;;;;5025164;28;20049;-72
2023/01/29 08:02:13;;;;;;;28.80;24.75;;;;;;;;;;5022294;28;20041;-74
2023/01/29 08:04:38;;;;;;;54.22;42.35;;;;;;;;;;5011023;28;20065;-73
2023/01/29 08:07:04;;;;;;;40.35;31.70;;;;;;;;;;5010954;28;20026;-72
2023/01/29 08:09:29;;;;;;;37.90;33.40;;;;;;;;;;5022343;28;20034;-72
2023/01/29 08:11:55;;;;;;;31.50;27.83;;;;;;;;;;5010312;28;20029;-74
2023/01/29 08:14:20;;;;;;;40.72;33.28;;;;;;;;;;5010009;28;20029;-73
2023/01/29 08:16:45;;;;;;;30.63;25.73;;;;;;;;;;5008092;28;20055;-72
2023/01/29 08:19:11;;;;;;;32.65;26.65;;;;;;;;;;5012191;28;20063;-71
2023/01/29 08:21:36;;;;;;;38.92;30.50;;;;;;;;;;5007566;28;20053;-72
2023/01/29 08:24:01;;;;;;;39.65;31.80;;;;;;;;;;5010269;28;20461;-72
2023/01/29 08:26:27;;;;;;;41.15;34.22;;;;;;;;;;5010610;28;20042;-72
2023/01/29 08:28:52;;;;;;;38.25;29.48;;;;;;;;;;5022362;28;20133;-74
2023/01/29 08:31:21;;;;;;;34.63;28.55;;;;;;;;;;5023823;28;20033;-73
2023/01/29 08:33:47;;;;;;;40.63;34.20;;;;;;;;;;5023528;28;20029;-73
2023/01/29 08:36:12;;;;;;;42.92;34.63;;;;;;;;;;5014804;28;20278;-71
2023/01/29 08:38:38;;;;;;;40.05;31.67;;;;;;;;;;5014542;28;20348;-72
2023/01/29 08:41:03;;;;;;;34.92;28.83;;;;;;;;;;5018457;28;20437;-72
2023/01/29 08:43:29;;;;;;;43.38;33.75;;;;;;;;;;5011053;28;20041;-74
2023/01/29 08:45:54;;;;;;;42.38;32.97;;;;;;;;;;5012661;28;20034;-72
2023/01/29 08:48:19;;;;;;;35.85;29.73;;;;;;;;;;5011094;28;20380;-72
2023/01/29 08:50:45;;;;;;;40.03;32.53;;;;;;;;;;5009743;28;20025;-74
2023/01/29 08:53:10;;;;;;;42.75;36.47;;;;;;;;;;5007707;28;20081;-73
2023/01/29 08:55:36;;;;;;;46.30;38.15;;;;;;;;;;5011729;28;20087;-72
2023/01/29 08:58:03;;;;;;;39.40;33.42;;;;;;;;;;5011633;28;20059;-75
2023/01/29 09:00:28;;;;;;;41.00;36.20;;;;;;;;;;5011485;28;20088;-73
2023/01/29 09:02:53;;;;;;;35.97;29.48;;;;;;;;;;5024091;28;20575;-73
2023/01/29 09:05:19;;;;;;;36.55;31.35;;;;;;;;;;5021523;28;20459;-73
2023/01/29 09:07:44;;;;;;;58.50;45.38;;;;;;;;;;5024514;28;20093;-72
2023/01/29 09:10:10;;;;;;;42.42;33.97;;;;;;;;;;5024514;28;20448;-72
2023/01/29 09:12:36;;;;;;;43.95;36.42;;;;;;;;;;5025286;28;20033;-72
2023/01/29 09:15:01;;;;;;;51.20;41.67;;;;;;;;;;5023399;28;20100;-72
2023/01/29 09:17:26;;;;;;;42.30;34.83;;;;;;;;;;5012768;28;20400;-73
2023/01/29 09:19:52;;;;;;;38.78;31.40;;;;;;;;;;5014125;28;20494;-71
2023/01/29 09:22:18;;;;;;;40.83;33.20;;;;;;;;;;5023941;28;20026;-72
2023/01/29 09:24:43;;;;;;;49.63;38.92;;;;;;;;;;5022283;28;20025;-73
2023/01/29 09:27:09;;;;;;;54.55;40.78;;;;;;;;;;5021858;28;20415;-72
2023/01/29 09:29:35;;;;;;;65.88;51.50;;;;;;;;;;5022660;28;20402;-72
2023/01/29 09:32:00;;;;;;;61.28;46.42;;;;;;;;;;5025346;28;20022;-71
2023/01/29 09:34:25;;;;;;;73.55;59.95;;;;;;;;;;5025492;28;20040;-72
2023/01/29 09:36:51;;;;;;;71.18;53.80;;;;;;;;;;5023147;28;20164;-72
2023/01/29 09:39:16;;;;;;;62.38;50.55;;;;;;;;;;5012533;28;20041;-72
2023/01/29 09:41:44;;;;;;;62.42;50.80;;;;;;;;;;5023999;28;20043;-72
2023/01/29 09:44:14;;;;;;;50.97;41.58;;;;;;;;;;5022345;28;20059;-73
2023/01/29 09:46:41;;;;;;;71.45;54.38;;;;;;;;;;5022833;28;20056;-73
2023/01/29 09:49:09;;;;;;;76.05;53.97;;;;;;;;;;5023427;28;20033;-73
2023/01/29 09:51:39;;;;;;;45.25;37.97;;;;;;;;;;5016363;28;20029;-76
2023/01/29 09:54:12;;;;;;;53.67;42.72;;;;;;;;;;5010538;28;20163;-74
2023/01/29 09:56:37;;;;;;;48.60;40.60;;;;;;;;;;5009498;28;20025;-75
2023/01/29 09:59:02;;;;;;;43.80;35.58;;;;;;;;;;5010059;28;20038;-73
2023/01/29 10:01:28;;;;;;;172.30;103.55;;;;;;;;;;5009086;28;20070;-76
2023/01/29 10:04:05;;;;;;;170.02;106.47;;;;;;;;;;5008624;28;20059;-75
2023/01/29 10:06:31;;;;;;;61.88;48.22;;;;;;;;;;5009254;28;20025;-72
2023/01/29 10:09:11;;;;;;;63.00;47.05;;;;;;;;;;5012887;28;20033;-72
2023/01/29 10:11:55;;;;;;;41.28;33.97;;;;;;;;;;5020211;28;20038;-72
2023/01/29 10:14:24;;;;;;;33.13;29.25;;;;;;;;;;5023407;28;20029;-73
2023/01/29 10:16:52;;;;;;;42.75;35.50;;;;;;;;;;5012929;28;20044;-73
2023/01/29 10:19:43;;;;;;;32.58;29.02;;;;;;;;;;5022893;28;20040;-72
2023/01/29 10:22:21;;;;;;;39.15;33.40;;;;;;;;;;5022619;28;20131;-73
2023/01/29 10:24:49;;;;;;;40.92;34.67;;;;;;;;;;5023165;28;20072;-74
2023/01/29 10:27:15;;;;;;;38.72;33.15;;;;;;;;;;5017585;28;20360;-75
2023/01/29 10:29:42;;;;;;;46.65;39.90;;;;;;;;;;5010628;28;20443;-73
2023/01/29 10:32:10;;;;;;;33.55;26.85;;;;;;;;;;5024219;28;20421;-74
2023/01/29 10:34:48;;;;;;;37.70;31.10;;;;;;;;;;5021700;28;20148;-74
2023/01/29 10:37:23;;;;;;;45.05;35.33;;;;;;;;;;5024130;28;20460;-75
2023/01/29 10:39:49;;;;;;;59.70;45.38;;;;;;;;;;5023334;28;20034;-74
2023/01/29 10:42:20;;;;;;;72.13;54.65;;;;;;;;;;5022038;28;20457;-75
2023/01/29 10:44:52;;;;;;;37.80;29.88;;;;;;;;;;5022304;28;20025;-77
2023/01/29 10:47:20;;;;;;;61.38;51.22;;;;;;;;;;5038648;28;20384;-73
2023/01/29 10:49:45;;;;;;;50.03;37.85;;;;;;;;;;5024799;28;20037;-72
2023/01/29 10:52:17;;;;;;;49.47;39.58;;;;;;;;;;5023318;28;20013;-76
2023/01/29 10:54:42;;;;;;;52.80;42.28;;;;;;;;;;5021970;28;20018;-75
2023/01/29 10:57:28;;;;;;;38.33;32.25;;;;;;;;;;5020892;28;20372;-76
2023/01/29 10:59:59;;;;;;;42.53;36.05;;;;;;;;;;5020348;28;20507;-72
2023/01/29 11:02:24;;;;;;;34.72;27.95;;;;;;;;;;5022497;28;20026;-75
2023/01/29 11:04:49;;;;;;;177.07;91.10;;;;;;;;;;5023502;28;20022;-72
2023/01/29 11:07:16;;;;;;;43.25;35.33;;;;;;;;;;5022277;28;20072;-72
2023/01/29 11:09:45;;;;;;;47.10;40.67;;;;;;;;;;5008902;28;20056;-76
2023/01/29 11:12:15;;;;;;;37.97;33.92;;;;;;;;;;5003840;28;20032;-75
2023/01/29 11:14:46;;;;;;;39.67;35.58;;;;;;;;;;5009101;28;20026;-73
2023/01/29 11:17:18;;;;;;;62.30;55.60;;;;;;;;;;5008899;28;20444;-73
2023/01/29 11:19:45;;;;;;;42.05;35.40;;;;;;;;;;5008594;28;20037;-73
2023/01/29 11:22:18;;;;;;;45.20;37.78;;;;;;;;;;5007976;28;20036;-73
2023/01/29 11:24:44;;;;;;;51.67;46.47;;;;;;;;;;5006867;28;20029;-72
2023/01/29 11:27:32;;;;;;;49.17;37.72;;;;;;;;;;5010458;28;20372;-74
2023/01/29 11:29:57;;;;;;;37.88;31.30;;;;;;;;;;5008580;28;20036;-73
2023/01/29 11:32:23;;;;;;;43.40;33.55;;;;;;;;;;5008315;28;20036;-74
2023/01/29 11:34:57;;;;;;;39.53;33.33;;;;;;;;;;5011260;28;20746;-72
2023/01/29 11:37:23;;;;;;;43.10;36.47;;;;;;;;;;5012210;28;20039;-73
2023/01/29 11:39:49;;;;;;;42.63;36.75;;;;;;;;;;5011711;28;20038;-76
2023/01/29 11:42:25;;;;;;;44.17;37.20;;;;;;;;;;5010597;28;20056;-73
2023/01/29 11:44:51;;;;;;;38.90;31.95;;;;;;;;;;5007185;28;20033;-73
2023/01/29 11:47:17;;;;;;;39.80;34.65;;;;;;;;;;5011263;28;20376;-72
2023/01/29 11:49:51;;;;;;;42.85;36.03;;;;;;;;;;5010048;28;20037;-74
2023/01/29 11:52:18;;;;;;;54.35;40.65;;;;;;;;;;5012540;28;20867;-73
2023/01/29 11:54:48;;;;;;;51.55;42.03;;;;;;;;;;5009873;28;20028;-73
2023/01/29 11:57:33;;;;;;;108.78;74.55;;;;;;;;;;5008149;28;20040;-73
2023/01/29 12:00:01;;;;;;;56.22;42.45;;;;;;;;;;5007606;28;20049;-75
2023/01/29 12:02:27;;;;;;;55.40;43.53;;;;;;;;;;5010981;28;20033;-75
2023/01/29 12:04:54;;;;;;;46.47;38.58;;;;;;;;;;5010247;28;23756;-75
2023/01/29 12:07:20;;;;;;;51.38;41.35;;;;;;;;;;5011343;28;20386;-73
2023/01/29 12:09:53;;;;;;;60.05;51.83;;;;;;;;;;5009153;28;20328;-73
2023/01/29 12:12:29;;;;;;;87.07;73.40;;;;;;;;;;5010723;28;20033;-73
2023/01/29 12:15:13;;;;;;;57.08;45.30;;;;;;;;;;5010162;28;20040;-72
2023/01/29 12:17:40;;;;;;;48.80;39.97;;;;;;;;;;5010186;28;20025;-73
2023/01/29 12:20:11;;;;;;;51.88;38.67;;;;;;;;;;5015754;28;20025;-73
2023/01/29 12:22:58;;;;;;;54.20;41.47;;;;;;;;;;5022844;28;20028;-76
2023/01/29 12:25:32;;;;;;;60.97;43.83;;;;;;;;;;5023728;28;20349;-74
2023/01/29 12:28:03;;;;;;;56.33;43.20;;;;;;;;;;5022318;28;20024;-75
2023/01/29 12:30:28;;;;;;;53.55;42.13;;;;;;;;;;5014133;28;20128;-73
2023/01/29 12:32:56;;;;;;;52.72;41.60;;;;;;;;;;5025345;28;20112;-74
2023/01/29 12:35:21;;;;;;;56.03;42.85;;;;;;;;;;5024999;28;20065;-73
2023/01/29 12:37:55;;;;;;;56.42;41.72;;;;;;;;;;5016173;28;20057;-76
2023/01/29 12:40:23;;;;;;;62.20;46.33;;;;;;;;;;5009207;28;20928;-75
2023/01/29 12:42:50;;;;;;;64.28;50.05;;;;;;;;;;5018171;28;20088;-76
2023/01/29 12:45:21;;;;;;;71.28;52.53;;;;;;;;;;5021480;28;20025;-75
2023/01/29 12:47:48;;;;;;;89.97;58.85;;;;;;;;;;5023249;28;20043;-73
2023/01/29 12:50:18;;;;;;;67.03;46.60;;;;;;;;;;5024063;28;20024;-73
2023/01/29 12:52:49;;;;;;;63.70;47.78;;;;;;;;;;5023792;28;20057;-72
2023/01/29 12:55:19;;;;;;;93.10;67.32;;;;;;;;;;5023045;28;20021;-71
2023/01/29 12:58:04;;;;;;;77.85;54.88;;;;;;;;;;5022923;28;20543;-71
2023/01/29 13:00:37;;;;;;;70.05;52.50;;;;;;;;;;5025711;28;20069;-73
2023/01/29 13:03:15;;;;;;;58.38;41.90;;;;;;;;;;5024321;28;20539;-75
2023/01/29 13:05:43;;;;;;;66.13;47.30;;;;;;;;;;5023781;28;20057;-72
2023/01/29 13:08:13;;;;;;;69.03;48.00;;;;;;;;;;5012647;28;20048;-73
2023/01/29 13:10:41;;;;;;;70.25;49.42;;;;;;;;;;5021374;28;20453;-72
2023/01/29 13:13:15;;;;;;;79.32;57.55;;;;;;;;;;5024740;28;20041;-72
2023/01/29 13:15:43;;;;;;;71.38;50.33;;;;;;;;;;5023636;28;20029;-74
2023/01/29 13:18:32;;;;;;;71.45;50.60;;;;;;;;;;5019952;28;20033;-77
2023/01/29 13:20:58;;;;;;;61.72;43.45;;;;;;;;;;5013847;28;20041;-74
2023/01/29 13:23:35;;;;;;;84.28;60.28;;;;;;;;;;5008458;28;20451;-72
2023/01/29 13:26:00;;;;;;;68.32;51.08;;;;;;;;;;5007661;28;20037;-72
2023/01/29 13:28:26;;;;;;;69.38;48.83;;;;;;;;;;5009331;28;20074;-72
2023/01/29 13:31:09;;;;;;;69.60;55.03;;;;;;;;;;5010596;28;20660;-73
2023/01/29 13:33:35;;;;;;;60.78;42.88;;;;;;;;;;5023281;28;20041;-74
2023/01/29 13:36:00;;;;;;;72.82;51.47;;;;;;;;;;5009015;28;20053;-74
2023/01/29 13:38:27;;;;;;;71.10;52.28;;;;;;;;;;5009894;28;20079;-75
2023/01/29 13:40:55;;;;;;;70.88;51.97;;;;;;;;;;5009746;28;20716;-72
2023/01/29 13:43:22;;;;;;;78.68;56.15;;;;;;;;;;5007806;28;20068;-74
2023/01/29 13:45:50;;;;;;;83.25;57.95;;;;;;;;;;5007076;28;20028;-71
2023/01/29 13:48:31;;;;;;;64.18;43.88;;;;;;;;;;5011302;28;20394;-72
2023/01/29 13:51:00;;;;;;;65.78;48.38;;;;;;;;;;5009926;28;20040;-71
2023/01/29 13:53:35;;;;;;;63.92;46.00;;;;;;;;;;5009421;28;20040;-72
2023/01/29 13:56:19;;;;;;;72.18;54.65;;;;;;;;;;5009059;28;20029;-75
2023/01/29 13:58:44;;;;;;;63.53;45.85;;;;;;;;;;5009816;28;20151;-74
2023/01/29 14:01:10;;;;;;;70.28;55.28;;;;;;;;;;5028058;28;20125;-73
2023/01/29 14:03:49;;;;;;;66.80;50.55;;;;;;;;;;5011584;28;20029;-72
2023/01/29 14:06:34;;;;;;;64.53;50.63;;;;;;;;;;5011769;28;20052;-72
2023/01/29 14:09:00;;;;;;;80.38;59.28;;;;;;;;;;5010290;28;20052;-72
2023/01/29 14:11:33;;;;;;;73.22;52.60;;;;;;;;;;5011322;28;20025;-72
2023/01/29 14:13:58;;;;;;;73.13;52.30;;;;;;;;;;5021775;28;20033;-72
2023/01/29 14:16:26;;;;;;;71.03;53.10;;;;;;;;;;5014676;28;20326;-72
2023/01/29 14:18:59;;;;;;;62.10;43.05;;;;;;;;;;5009065;28;20459;-73
2023/01/29 14:21:32;;;;;;;75.53;54.25;;;;;;;;;;5013959;28;20091;-72
2023/01/29 14:24:06;;;;;;;78.38;53.75;;;;;;;;;;5022723;28;20344;-72
2023/01/29 14:26:33;;;;;;;78.10;57.50;;;;;;;;;;5023294;28;20423;-71
2023/01/29 14:29:01;;;;;;;85.00;58.53;;;;;;;;;;5020009;28;20505;-73
2023/01/29 14:31:31;;;;;;;96.38;65.53;;;;;;;;;;5023393;28;20025;-71
2023/01/29 14:34:00;;;;;;;81.18;56.47;;;;;;;;;;5021839;28;20021;-72
2023/01/29 14:36:26;;;;;;;;;;;;;;;;;;5022422;28;20120;-72
2023/01/29 14:38:52;;;;;;;98.60;72.37;;;;;;;;;;5024115;28;20016;-73
2023/01/29 14:41:31;;;;;;;101.63;65.38;;;;;;;;;;5020925;28;20636;-71
2023/01/29 14:44:15;;;;;;;88.03;55.13;;;;;;;;;;5013228;28;20095;-71
2023/01/29 14:46:42;;;;;;;78.45;57.10;;;;;;;;;;5015785;28;20449;-73
2023/01/29 14:49:07;;;;;;;85.03;61.70;;;;;;;;;;5016675;28;20441;-72
2023/01/29 14:51:35;;;;;;;83.55;60.13;;;;;;;;;;5038596;28;20040;-72
2023/01/29 14:54:03;;;;;;;97.05;70.93;;;;;;;;;;5022995;28;20444;-71